sensor_id;sensor_type;location;lat;lon;timestamp;temperature;humidity
52867;DHT22;38739;53.324;6.862;2023-08-20T00:02:11;16.20;99.90
52867;DHT22;38739;53.324;6.862;2023-08-20T00:04:37;16.20;99.90
52867;DHT22;38739;53.324;6.862;2023-08-20T00:07:03;16.10;99.90
52867;DHT22;38739;53.324;6.862;2023-08-20T00:09:29;16.10;99.90
52867;DHT22;38739;53.324;6.862;2023-08-20T00:11:55;16.10;99.90
52867;DHT22;38739;53.324;6.862;2023-08-20T00:17:33;16.00;99.90
52867;DHT22;38739;53.324;6.862;2023-08-20T00:20:00;16.00;99.90
52867;DHT22;38739;53.324;6.862;2023-08-20T00:22:26;16.00;99.90
52867;DHT22;38739;53.324;6.862;2023-08-20T00:24:55;15.90;99.90
52867;DHT22;38739;53.324;6.862;2023-08-20T00:27:21;16.00;99.90
52867;DHT22;38739;53.324;6.862;2023-08-20T00:29:47;15.90;99.90
52867;DHT22;38739;53.324;6.862;2023-08-20T00:32:13;15.90;99.90
52867;DHT22;38739;53.324;6.862;2023-08-20T00:34:39;15.90;99.90
52867;DHT22;38739;53.324;6.862;2023-08-20T00:37:05;15.90;99.90
52867;DHT22;38739;53.324;6.862;2023-08-20T00:39:31;15.90;99.90
52867;DHT22;38739;53.324;6.862;2023-08-20T00:41:57;15.80;99.90
52867;DHT22;38739;53.324;6.862;2023-08-20T00:44:23;15.80;99.90
52867;DHT22;38739;53.324;6.862;2023-08-20T00:46:51;15.80;99.90
52867;DHT22;38739;53.324;6.862;2023-08-20T00:49:17;15.90;99.90
52867;DHT22;38739;53.324;6.862;2023-08-20T00:51:43;15.80;99.90
52867;DHT22;38739;53.324;6.862;2023-08-20T00:54:10;15.80;99.90
52867;DHT22;38739;53.324;6.862;2023-08-20T00:56:36;15.80;99.90
52867;DHT22;38739;53.324;6.862;2023-08-20T00:59:04;15.80;99.90
52867;DHT22;38739;53.324;6.862;2023-08-20T01:01:30;15.80;99.90
52867;DHT22;38739;53.324;6.862;2023-08-20T01:03:56;15.80;99.90
52867;DHT22;38739;53.324;6.862;2023-08-20T01:06:44;15.80;99.90
52867;DHT22;38739;53.324;6.862;2023-08-20T01:12:08;15.80;99.90
52867;DHT22;38739;53.324;6.862;2023-08-20T01:14:35;15.70;99.90
52867;DHT22;38739;53.324;6.862;2023-08-20T01:17:01;15.70;99.90
52867;DHT22;38739;53.324;6.862;2023-08-20T01:19:27;15.70;99.90
52867;DHT22;38739;53.324;6.862;2023-08-20T01:27:00;15.70;99.90
52867;DHT22;38739;53.324;6.862;2023-08-20T01:29:32;15.70;99.90
52867;DHT22;38739;53.324;6.862;2023-08-20T01:31:59;15.70;99.90
52867;DHT22;38739;53.324;6.862;2023-08-20T01:34:25;15.60;99.90
52867;DHT22;38739;53.324;6.862;2023-08-20T01:36:52;15.60;99.90
52867;DHT22;38739;53.324;6.862;2023-08-20T01:39:17;15.60;99.90
52867;DHT22;38739;53.324;6.862;2023-08-20T01:41:44;15.50;99.90
52867;DHT22;38739;53.324;6.862;2023-08-20T01:44:10;15.50;99.90
52867;DHT22;38739;53.324;6.862;2023-08-20T01:46:35;15.50;99.90
52867;DHT22;38739;53.324;6.862;2023-08-20T01:49:02;15.40;99.90
52867;DHT22;38739;53.324;6.862;2023-08-20T01:51:28;15.40;99.90
52867;DHT22;38739;53.324;6.862;2023-08-20T01:53:54;15.40;99.90
52867;DHT22;38739;53.324;6.862;2023-08-20T01:56:20;15.40;99.90
52867;DHT22;38739;53.324;6.862;2023-08-20T01:58:45;15.40;99.90
52867;DHT22;38739;53.324;6.862;2023-08-20T02:01:11;15.40;99.90
52867;DHT22;38739;53.324;6.862;2023-08-20T02:03:36;15.40;99.90
52867;DHT22;38739;53.324;6.862;2023-08-20T02:06:03;15.30;99.90
52867;DHT22;38739;53.324;6.862;2023-08-20T02:08:29;15.30;99.90
52867;DHT22;38739;53.324;6.862;2023-08-20T02:11:04;15.30;99.90
52867;DHT22;38739;53.324;6.862;2023-08-20T02:13:31;15.30;99.90
52867;DHT22;38739;53.324;6.862;2023-08-20T02:16:01;15.30;99.90
52867;DHT22;38739;53.324;6.862;2023-08-20T02:18:28;15.30;99.90
52867;DHT22;38739;53.324;6.862;2023-08-20T02:20:54;15.20;99.90
52867;DHT22;38739;53.324;6.862;2023-08-20T02:23:20;15.20;99.90
52867;DHT22;38739;53.324;6.862;2023-08-20T02:25:46;15.20;99.90
52867;DHT22;38739;53.324;6.862;2023-08-20T02:28:12;15.20;99.90
52867;DHT22;38739;53.324;6.862;2023-08-20T02:30:43;15.20;99.90
52867;DHT22;38739;53.324;6.862;2023-08-20T02:33:09;15.20;99.90
52867;DHT22;38739;53.324;6.862;2023-08-20T02:35:36;15.20;99.90
52867;DHT22;38739;53.324;6.862;2023-08-20T02:38:02;15.20;99.90
52867;DHT22;38739;53.324;6.862;2023-08-20T02:40:28;15.10;99.90
52867;DHT22;38739;53.324;6.862;2023-08-20T02:42:54;15.20;99.90
52867;DHT22;38739;53.324;6.862;2023-08-20T02:45:19;15.20;99.90
52867;DHT22;38739;53.324;6.862;2023-08-20T02:47:45;15.20;99.90
52867;DHT22;38739;53.324;6.862;2023-08-20T02:50:11;15.20;99.90
52867;DHT22;38739;53.324;6.862;2023-08-20T02:52:36;15.20;99.90
52867;DHT22;38739;53.324;6.862;2023-08-20T02:55:03;15.20;99.90
52867;DHT22;38739;53.324;6.862;2023-08-20T02:57:30;15.20;99.90
52867;DHT22;38739;53.324;6.862;2023-08-20T02:59:57;15.20;99.90
52867;DHT22;38739;53.324;6.862;2023-08-20T03:02:22;15.20;99.90
52867;DHT22;38739;53.324;6.862;2023-08-20T03:04:48;15.10;99.90
52867;DHT22;38739;53.324;6.862;2023-08-20T03:07:14;15.10;99.90
52867;DHT22;38739;53.324;6.862;2023-08-20T03:09:39;15.20;99.90
52867;DHT22;38739;53.324;6.862;2023-08-20T03:12:05;15.20;99.90
52867;DHT22;38739;53.324;6.862;2023-08-20T03:14:31;15.10;99.90
52867;DHT22;38739;53.324;6.862;2023-08-20T03:16:57;15.10;99.90
52867;DHT22;38739;53.324;6.862;2023-08-20T03:19:22;15.10;99.90
52867;DHT22;38739;53.324;6.862;2023-08-20T03:21:48;15.00;99.90
52867;DHT22;38739;53.324;6.862;2023-08-20T03:24:14;15.00;99.90
52867;DHT22;38739;53.324;6.862;2023-08-20T03:26:39;15.00;99.90
52867;DHT22;38739;53.324;6.862;2023-08-20T03:29:05;14.90;99.90
52867;DHT22;38739;53.324;6.862;2023-08-20T03:31:31;14.90;99.90
52867;DHT22;38739;53.324;6.862;2023-08-20T03:33:57;14.90;99.90
52867;DHT22;38739;53.324;6.862;2023-08-20T03:36:23;14.90;99.90
52867;DHT22;38739;53.324;6.862;2023-08-20T03:38:48;14.90;99.90
52867;DHT22;38739;53.324;6.862;2023-08-20T03:41:14;14.90;99.90
52867;DHT22;38739;53.324;6.862;2023-08-20T03:43:40;14.80;99.90
52867;DHT22;38739;53.324;6.862;2023-08-20T03:46:05;14.80;99.90
52867;DHT22;38739;53.324;6.862;2023-08-20T03:48:31;14.80;99.90
52867;DHT22;38739;53.324;6.862;2023-08-20T03:50:57;14.80;99.90
52867;DHT22;38739;53.324;6.862;2023-08-20T03:53:22;14.80;99.90
52867;DHT22;38739;53.324;6.862;2023-08-20T03:55:49;14.70;99.90
52867;DHT22;38739;53.324;6.862;2023-08-20T03:58:15;14.70;99.90
52867;DHT22;38739;53.324;6.862;2023-08-20T04:00:41;14.80;99.90
52867;DHT22;38739;53.324;6.862;2023-08-20T04:03:06;14.70;99.90
52867;DHT22;38739;53.324;6.862;2023-08-20T04:05:36;14.70;99.90
52867;DHT22;38739;53.324;6.862;2023-08-20T04:08:03;14.70;99.90
52867;DHT22;38739;53.324;6.862;2023-08-20T04:10:30;14.60;99.90
52867;DHT22;38739;53.324;6.862;2023-08-20T04:12:56;14.70;99.90
52867;DHT22;38739;53.324;6.862;2023-08-20T04:15:22;14.70;99.90
52867;DHT22;38739;53.324;6.862;2023-08-20T04:17:48;14.60;99.90
52867;DHT22;38739;53.324;6.862;2023-08-20T04:20:14;14.70;99.90
52867;DHT22;38739;53.324;6.862;2023-08-20T04:22:40;14.70;99.90
52867;DHT22;38739;53.324;6.862;2023-08-20T04:25:07;14.70;99.90
52867;DHT22;38739;53.324;6.862;2023-08-20T04:27:33;14.70;99.90
52867;DHT22;38739;53.324;6.862;2023-08-20T04:29:58;14.70;99.90
52867;DHT22;38739;53.324;6.862;2023-08-20T04:32:24;14.70;99.90
52867;DHT22;38739;53.324;6.862;2023-08-20T04:34:50;14.70;99.90
52867;DHT22;38739;53.324;6.862;2023-08-20T04:37:19;14.70;99.90
52867;DHT22;38739;53.324;6.862;2023-08-20T04:39:44;14.70;99.90
52867;DHT22;38739;53.324;6.862;2023-08-20T04:42:10;14.70;99.90
52867;DHT22;38739;53.324;6.862;2023-08-20T04:44:36;14.70;99.90
52867;DHT22;38739;53.324;6.862;2023-08-20T04:47:02;14.70;99.90
52867;DHT22;38739;53.324;6.862;2023-08-20T04:49:27;14.70;99.90
52867;DHT22;38739;53.324;6.862;2023-08-20T04:51:54;14.80;99.90
52867;DHT22;38739;53.324;6.862;2023-08-20T04:54:20;14.70;99.90
52867;DHT22;38739;53.324;6.862;2023-08-20T04:56:46;14.70;99.90
52867;DHT22;38739;53.324;6.862;2023-08-20T04:59:12;14.80;99.90
52867;DHT22;38739;53.324;6.862;2023-08-20T05:01:38;14.80;99.90
52867;DHT22;38739;53.324;6.862;2023-08-20T05:04:04;14.80;99.90
52867;DHT22;38739;53.324;6.862;2023-08-20T05:06:31;14.80;99.90
52867;DHT22;38739;53.324;6.862;2023-08-20T05:08:57;14.80;99.90
52867;DHT22;38739;53.324;6.862;2023-08-20T05:11:22;14.90;99.90
52867;DHT22;38739;53.324;6.862;2023-08-20T05:13:49;14.90;99.90
52867;DHT22;38739;53.324;6.862;2023-08-20T05:16:15;14.90;99.90
52867;DHT22;38739;53.324;6.862;2023-08-20T05:18:42;14.90;99.90
52867;DHT22;38739;53.324;6.862;2023-08-20T05:21:07;14.90;99.90
52867;DHT22;38739;53.324;6.862;2023-08-20T05:23:33;15.00;99.90
52867;DHT22;38739;53.324;6.862;2023-08-20T05:25:59;15.00;99.90
52867;DHT22;38739;53.324;6.862;2023-08-20T05:28:24;15.10;99.90
52867;DHT22;38739;53.324;6.862;2023-08-20T05:30:57;15.10;99.90
52867;DHT22;38739;53.324;6.862;2023-08-20T05:33:24;15.10;99.90
52867;DHT22;38739;53.324;6.862;2023-08-20T05:35:50;15.10;99.90
52867;DHT22;38739;53.324;6.862;2023-08-20T05:38:16;15.20;99.90
52867;DHT22;38739;53.324;6.862;2023-08-20T05:40:42;15.20;99.90
52867;DHT22;38739;53.324;6.862;2023-08-20T05:43:08;15.30;99.90
52867;DHT22;38739;53.324;6.862;2023-08-20T05:45:34;15.30;99.90
52867;DHT22;38739;53.324;6.862;2023-08-20T05:48:00;15.40;99.90
52867;DHT22;38739;53.324;6.862;2023-08-20T05:50:25;15.40;99.90
52867;DHT22;38739;53.324;6.862;2023-08-20T05:52:52;15.50;99.90
52867;DHT22;38739;53.324;6.862;2023-08-20T05:55:18;15.50;99.90
52867;DHT22;38739;53.324;6.862;2023-08-20T05:57:44;15.50;99.90
52867;DHT22;38739;53.324;6.862;2023-08-20T06:00:10;15.50;99.90
52867;DHT22;38739;53.324;6.862;2023-08-20T06:02:37;15.60;99.90
52867;DHT22;38739;53.324;6.862;2023-08-20T06:05:03;15.60;99.90
52867;DHT22;38739;53.324;6.862;2023-08-20T06:07:32;15.70;99.90
52867;DHT22;38739;53.324;6.862;2023-08-20T06:09:57;15.80;99.90
52867;DHT22;38739;53.324;6.862;2023-08-20T06:12:23;15.80;99.90
52867;DHT22;38739;53.324;6.862;2023-08-20T06:14:49;15.90;99.90
52867;DHT22;38739;53.324;6.862;2023-08-20T06:17:15;15.90;99.90
52867;DHT22;38739;53.324;6.862;2023-08-20T06:19:41;16.00;99.90
52867;DHT22;38739;53.324;6.862;2023-08-20T06:22:06;16.10;99.90
52867;DHT22;38739;53.324;6.862;2023-08-20T06:24:32;16.10;99.90
52867;DHT22;38739;53.324;6.862;2023-08-20T06:26:58;16.20;99.90
52867;DHT22;38739;53.324;6.862;2023-08-20T06:29:24;16.30;99.90
52867;DHT22;38739;53.324;6.862;2023-08-20T06:31:50;16.40;99.90
52867;DHT22;38739;53.324;6.862;2023-08-20T06:34:16;16.50;99.90
52867;DHT22;38739;53.324;6.862;2023-08-20T06:36:42;16.60;99.90
52867;DHT22;38739;53.324;6.862;2023-08-20T06:39:08;16.70;99.90
52867;DHT22;38739;53.324;6.862;2023-08-20T06:41:34;16.80;99.90
52867;DHT22;38739;53.324;6.862;2023-08-20T06:44:01;16.90;99.90
52867;DHT22;38739;53.324;6.862;2023-08-20T06:46:27;17.10;99.90
52867;DHT22;38739;53.324;6.862;2023-08-20T06:48:52;17.20;99.90
52867;DHT22;38739;53.324;6.862;2023-08-20T06:51:21;17.40;99.90
52867;DHT22;38739;53.324;6.862;2023-08-20T06:53:48;17.60;99.90
52867;DHT22;38739;53.324;6.862;2023-08-20T06:56:14;17.70;99.90
52867;DHT22;38739;53.324;6.862;2023-08-20T06:58:41;17.80;99.90
52867;DHT22;38739;53.324;6.862;2023-08-20T07:01:07;18.00;99.90
52867;DHT22;38739;53.324;6.862;2023-08-20T07:03:41;18.10;99.90
52867;DHT22;38739;53.324;6.862;2023-08-20T07:06:07;18.30;99.90
52867;DHT22;38739;53.324;6.862;2023-08-20T07:08:37;18.50;99.90
52867;DHT22;38739;53.324;6.862;2023-08-20T07:11:05;18.60;99.90
52867;DHT22;38739;53.324;6.862;2023-08-20T07:13:30;18.80;99.90
52867;DHT22;38739;53.324;6.862;2023-08-20T07:15:56;19.00;99.90
52867;DHT22;38739;53.324;6.862;2023-08-20T07:18:22;19.20;99.90
52867;DHT22;38739;53.324;6.862;2023-08-20T07:20:48;19.30;99.90
52867;DHT22;38739;53.324;6.862;2023-08-20T07:23:14;19.50;99.90
52867;DHT22;38739;53.324;6.862;2023-08-20T07:25:41;19.70;99.90
52867;DHT22;38739;53.324;6.862;2023-08-20T07:28:08;19.90;99.90
52867;DHT22;38739;53.324;6.862;2023-08-20T07:30:35;20.00;99.90
52867;DHT22;38739;53.324;6.862;2023-08-20T07:33:02;20.10;99.90
52867;DHT22;38739;53.324;6.862;2023-08-20T07:35:28;20.30;99.90
52867;DHT22;38739;53.324;6.862;2023-08-20T07:37:53;20.40;99.90
52867;DHT22;38739;53.324;6.862;2023-08-20T07:40:19;20.60;99.90
52867;DHT22;38739;53.324;6.862;2023-08-20T07:42:45;20.80;99.90
52867;DHT22;38739;53.324;6.862;2023-08-20T07:45:11;20.90;99.90
52867;DHT22;38739;53.324;6.862;2023-08-20T07:47:37;21.10;99.90
52867;DHT22;38739;53.324;6.862;2023-08-20T07:50:04;21.20;99.90
52867;DHT22;38739;53.324;6.862;2023-08-20T07:52:30;21.40;99.90
52867;DHT22;38739;53.324;6.862;2023-08-20T07:54:56;21.60;99.90
52867;DHT22;38739;53.324;6.862;2023-08-20T07:57:22;21.70;99.90
52867;DHT22;38739;53.324;6.862;2023-08-20T07:59:49;21.80;99.90
52867;DHT22;38739;53.324;6.862;2023-08-20T08:02:15;22.00;99.90
52867;DHT22;38739;53.324;6.862;2023-08-20T08:04:42;22.10;99.90
52867;DHT22;38739;53.324;6.862;2023-08-20T08:07:09;22.20;99.90
52867;DHT22;38739;53.324;6.862;2023-08-20T08:09:34;22.40;99.90
52867;DHT22;38739;53.324;6.862;2023-08-20T08:12:01;22.60;99.90
52867;DHT22;38739;53.324;6.862;2023-08-20T08:14:27;22.70;99.90
52867;DHT22;38739;53.324;6.862;2023-08-20T08:16:53;22.80;99.90
52867;DHT22;38739;53.324;6.862;2023-08-20T08:19:19;22.90;99.90
52867;DHT22;38739;53.324;6.862;2023-08-20T08:21:45;23.10;99.90
52867;DHT22;38739;53.324;6.862;2023-08-20T08:24:11;23.20;99.90
52867;DHT22;38739;53.324;6.862;2023-08-20T08:26:37;23.40;99.90
52867;DHT22;38739;53.324;6.862;2023-08-20T08:29:03;23.40;99.90
52867;DHT22;38739;53.324;6.862;2023-08-20T08:31:29;23.60;99.90
52867;DHT22;38739;53.324;6.862;2023-08-20T08:33:55;23.80;99.90
52867;DHT22;38739;53.324;6.862;2023-08-20T08:36:20;23.90;99.90
52867;DHT22;38739;53.324;6.862;2023-08-20T08:38:46;24.10;99.90
52867;DHT22;38739;53.324;6.862;2023-08-20T08:41:13;24.20;99.90
52867;DHT22;38739;53.324;6.862;2023-08-20T08:43:40;24.40;99.90
52867;DHT22;38739;53.324;6.862;2023-08-20T08:46:07;24.50;99.90
52867;DHT22;38739;53.324;6.862;2023-08-20T08:48:36;24.70;99.90
52867;DHT22;38739;53.324;6.862;2023-08-20T08:51:02;24.80;99.90
52867;DHT22;38739;53.324;6.862;2023-08-20T08:53:30;24.90;99.90
52867;DHT22;38739;53.324;6.862;2023-08-20T08:55:58;25.00;99.90
52867;DHT22;38739;53.324;6.862;2023-08-20T08:58:23;25.20;99.90
52867;DHT22;38739;53.324;6.862;2023-08-20T09:00:49;25.30;99.90
52867;DHT22;38739;53.324;6.862;2023-08-20T09:03:15;25.40;99.90
52867;DHT22;38739;53.324;6.862;2023-08-20T09:05:55;25.60;99.90
52867;DHT22;38739;53.324;6.862;2023-08-20T09:08:28;25.70;99.90
52867;DHT22;38739;53.324;6.862;2023-08-20T09:10:55;25.80;99.90
52867;DHT22;38739;53.324;6.862;2023-08-20T09:13:35;26.00;99.90
52867;DHT22;38739;53.324;6.862;2023-08-20T09:16:04;26.10;99.90
52867;DHT22;38739;53.324;6.862;2023-08-20T09:18:30;26.10;99.90
52867;DHT22;38739;53.324;6.862;2023-08-20T09:20:57;26.20;99.90
52867;DHT22;38739;53.324;6.862;2023-08-20T09:23:24;26.20;99.90
52867;DHT22;38739;53.324;6.862;2023-08-20T09:25:53;26.30;99.90
52867;DHT22;38739;53.324;6.862;2023-08-20T09:28:18;26.40;99.90
52867;DHT22;38739;53.324;6.862;2023-08-20T09:31:00;26.50;99.90
52867;DHT22;38739;53.324;6.862;2023-08-20T09:33:29;26.70;99.90
52867;DHT22;38739;53.324;6.862;2023-08-20T09:35:55;27.00;99.90
52867;DHT22;38739;53.324;6.862;2023-08-20T09:38:23;27.10;99.90
52867;DHT22;38739;53.324;6.862;2023-08-20T09:40:50;27.10;99.90
52867;DHT22;38739;53.324;6.862;2023-08-20T09:43:19;27.30;99.90
52867;DHT22;38739;53.324;6.862;2023-08-20T09:45:47;27.50;99.90
52867;DHT22;38739;53.324;6.862;2023-08-20T09:48:20;27.50;99.90
52867;DHT22;38739;53.324;6.862;2023-08-20T09:50:59;27.80;99.90
52867;DHT22;38739;53.324;6.862;2023-08-20T09:53:45;27.90;99.90
52867;DHT22;38739;53.324;6.862;2023-08-20T09:58:44;28.20;99.90
52867;DHT22;38739;53.324;6.862;2023-08-20T10:01:10;28.40;99.90
52867;DHT22;38739;53.324;6.862;2023-08-20T10:03:37;28.50;99.90
52867;DHT22;38739;53.324;6.862;2023-08-20T10:06:03;28.50;99.90
52867;DHT22;38739;53.324;6.862;2023-08-20T10:08:29;28.60;99.80
52867;DHT22;38739;53.324;6.862;2023-08-20T10:10:55;28.70;99.60
52867;DHT22;38739;53.324;6.862;2023-08-20T10:13:21;28.90;99.00
52867;DHT22;38739;53.324;6.862;2023-08-20T10:15:47;29.10;98.40
52867;DHT22;38739;53.324;6.862;2023-08-20T10:18:13;29.20;97.60
52867;DHT22;38739;53.324;6.862;2023-08-20T10:20:39;29.00;97.70
52867;DHT22;38739;53.324;6.862;2023-08-20T10:23:06;29.00;98.10
52867;DHT22;38739;53.324;6.862;2023-08-20T10:25:40;29.10;98.60
52867;DHT22;38739;53.324;6.862;2023-08-20T10:28:22;29.10;96.80
52867;DHT22;38739;53.324;6.862;2023-08-20T10:33:38;28.90;95.10
52867;DHT22;38739;53.324;6.862;2023-08-20T10:36:17;29.10;96.60
52867;DHT22;38739;53.324;6.862;2023-08-20T10:38:47;29.40;96.40
52867;DHT22;38739;53.324;6.862;2023-08-20T10:41:13;29.70;95.60
52867;DHT22;38739;53.324;6.862;2023-08-20T10:43:46;29.70;95.00
52867;DHT22;38739;53.324;6.862;2023-08-20T10:46:18;29.70;94.10
52867;DHT22;38739;53.324;6.862;2023-08-20T10:48:52;29.90;94.90
52867;DHT22;38739;53.324;6.862;2023-08-20T10:51:26;30.00;94.10
52867;DHT22;38739;53.324;6.862;2023-08-20T10:59:26;30.10;92.00
52867;DHT22;38739;53.324;6.862;2023-08-20T11:01:53;30.30;93.00
52867;DHT22;38739;53.324;6.862;2023-08-20T11:04:21;30.60;91.90
52867;DHT22;38739;53.324;6.862;2023-08-20T11:06:52;30.70;90.50
52867;DHT22;38739;53.324;6.862;2023-08-20T11:09:18;30.70;90.80
52867;DHT22;38739;53.324;6.862;2023-08-20T11:11:44;30.70;90.10
52867;DHT22;38739;53.324;6.862;2023-08-20T11:14:14;30.40;89.80
52867;DHT22;38739;53.324;6.862;2023-08-20T11:16:40;30.40;89.50
52867;DHT22;38739;53.324;6.862;2023-08-20T11:19:06;30.30;88.70
52867;DHT22;38739;53.324;6.862;2023-08-20T11:21:35;30.20;88.30
52867;DHT22;38739;53.324;6.862;2023-08-20T11:24:01;30.50;88.90
52867;DHT22;38739;53.324;6.862;2023-08-20T11:26:27;30.90;87.70
52867;DHT22;38739;53.324;6.862;2023-08-20T11:28:53;31.00;85.50
52867;DHT22;38739;53.324;6.862;2023-08-20T11:31:19;31.20;85.10
52867;DHT22;38739;53.324;6.862;2023-08-20T11:33:45;31.30;81.60
52867;DHT22;38739;53.324;6.862;2023-08-20T11:36:17;31.60;83.80
52867;DHT22;38739;53.324;6.862;2023-08-20T11:38:52;31.80;80.30
52867;DHT22;38739;53.324;6.862;2023-08-20T11:41:19;31.90;79.40
52867;DHT22;38739;53.324;6.862;2023-08-20T11:43:46;31.90;79.10
52867;DHT22;38739;53.324;6.862;2023-08-20T11:46:17;31.90;79.80
52867;DHT22;38739;53.324;6.862;2023-08-20T11:51:49;32.50;78.60
52867;DHT22;38739;53.324;6.862;2023-08-20T11:54:17;33.00;76.80
52867;DHT22;38739;53.324;6.862;2023-08-20T11:56:48;33.20;76.00
52867;DHT22;38739;53.324;6.862;2023-08-20T11:59:15;33.30;75.70
52867;DHT22;38739;53.324;6.862;2023-08-20T12:01:41;33.70;72.80
52867;DHT22;38739;53.324;6.862;2023-08-20T12:04:09;34.10;72.00
52867;DHT22;38739;53.324;6.862;2023-08-20T12:06:37;34.20;70.60
52867;DHT22;38739;53.324;6.862;2023-08-20T12:09:23;33.90;69.80
52867;DHT22;38739;53.324;6.862;2023-08-20T12:11:54;33.50;70.60
52867;DHT22;38739;53.324;6.862;2023-08-20T12:14:21;33.70;70.50
52867;DHT22;38739;53.324;6.862;2023-08-20T12:16:47;34.00;69.30
52867;DHT22;38739;53.324;6.862;2023-08-20T12:19:13;34.10;68.40
52867;DHT22;38739;53.324;6.862;2023-08-20T12:21:42;33.90;66.50
52867;DHT22;38739;53.324;6.862;2023-08-20T12:24:09;34.00;68.00
52867;DHT22;38739;53.324;6.862;2023-08-20T12:26:39;34.10;68.30
52867;DHT22;38739;53.324;6.862;2023-08-20T12:29:05;34.20;68.20
52867;DHT22;38739;53.324;6.862;2023-08-20T12:31:34;34.30;65.80
52867;DHT22;38739;53.324;6.862;2023-08-20T12:34:00;34.50;67.80
52867;DHT22;38739;53.324;6.862;2023-08-20T12:36:27;34.70;65.60
52867;DHT22;38739;53.324;6.862;2023-08-20T12:38:53;34.80;65.70
52867;DHT22;38739;53.324;6.862;2023-08-20T12:41:19;34.80;64.90
52867;DHT22;38739;53.324;6.862;2023-08-20T12:43:45;34.80;63.30
52867;DHT22;38739;53.324;6.862;2023-08-20T12:46:11;34.80;64.80
52867;DHT22;38739;53.324;6.862;2023-08-20T12:48:38;34.60;64.50
52867;DHT22;38739;53.324;6.862;2023-08-20T12:51:04;34.80;66.10
52867;DHT22;38739;53.324;6.862;2023-08-20T12:53:30;35.00;64.10
52867;DHT22;38739;53.324;6.862;2023-08-20T12:55:58;35.20;63.20
52867;DHT22;38739;53.324;6.862;2023-08-20T12:58:24;35.30;62.30
52867;DHT22;38739;53.324;6.862;2023-08-20T13:00:52;35.50;63.30
52867;DHT22;38739;53.324;6.862;2023-08-20T13:03:19;35.10;63.00
52867;DHT22;38739;53.324;6.862;2023-08-20T13:05:45;35.40;63.80
52867;DHT22;38739;53.324;6.862;2023-08-20T13:08:11;35.40;64.20
52867;DHT22;38739;53.324;6.862;2023-08-20T13:10:41;35.80;62.30
52867;DHT22;38739;53.324;6.862;2023-08-20T13:13:12;35.80;60.90
52867;DHT22;38739;53.324;6.862;2023-08-20T13:15:41;35.80;61.60
52867;DHT22;38739;53.324;6.862;2023-08-20T13:18:12;35.60;59.90
52867;DHT22;38739;53.324;6.862;2023-08-20T13:20:39;35.30;60.50
52867;DHT22;38739;53.324;6.862;2023-08-20T13:23:05;35.40;59.60
52867;DHT22;38739;53.324;6.862;2023-08-20T13:25:31;35.50;60.20
52867;DHT22;38739;53.324;6.862;2023-08-20T13:27:56;35.10;60.60
52867;DHT22;38739;53.324;6.862;2023-08-20T13:30:22;35.20;62.00
52867;DHT22;38739;53.324;6.862;2023-08-20T13:32:49;35.60;60.30
52867;DHT22;38739;53.324;6.862;2023-08-20T13:35:15;35.80;59.30
52867;DHT22;38739;53.324;6.862;2023-08-20T13:37:40;35.90;57.90
52867;DHT22;38739;53.324;6.862;2023-08-20T13:40:06;35.90;58.00
52867;DHT22;38739;53.324;6.862;2023-08-20T13:42:35;36.00;58.60
52867;DHT22;38739;53.324;6.862;2023-08-20T13:45:00;35.70;58.20
52867;DHT22;38739;53.324;6.862;2023-08-20T13:47:26;36.00;59.00
52867;DHT22;38739;53.324;6.862;2023-08-20T13:49:52;35.60;58.30
52867;DHT22;38739;53.324;6.862;2023-08-20T13:52:17;35.60;58.30
52867;DHT22;38739;53.324;6.862;2023-08-20T13:54:43;35.50;59.00
52867;DHT22;38739;53.324;6.862;2023-08-20T13:57:09;35.60;59.20
52867;DHT22;38739;53.324;6.862;2023-08-20T13:59:35;35.50;59.60
52867;DHT22;38739;53.324;6.862;2023-08-20T14:02:01;35.50;60.60
52867;DHT22;38739;53.324;6.862;2023-08-20T14:04:26;35.50;62.50
52867;DHT22;38739;53.324;6.862;2023-08-20T14:06:52;35.20;64.60
52867;DHT22;38739;53.324;6.862;2023-08-20T14:09:18;35.00;63.90
52867;DHT22;38739;53.324;6.862;2023-08-20T14:11:47;35.00;64.40
52867;DHT22;38739;53.324;6.862;2023-08-20T14:14:13;34.90;63.30
52867;DHT22;38739;53.324;6.862;2023-08-20T14:16:39;34.40;64.90
52867;DHT22;38739;53.324;6.862;2023-08-20T14:19:04;33.90;66.60
52867;DHT22;38739;53.324;6.862;2023-08-20T14:21:30;33.40;67.60
52867;DHT22;38739;53.324;6.862;2023-08-20T14:23:56;32.50;69.00
52867;DHT22;38739;53.324;6.862;2023-08-20T14:26:21;32.10;70.20
52867;DHT22;38739;53.324;6.862;2023-08-20T14:28:47;31.90;71.10
52867;DHT22;38739;53.324;6.862;2023-08-20T14:31:13;32.20;71.40
52867;DHT22;38739;53.324;6.862;2023-08-20T14:33:39;31.90;70.90
52867;DHT22;38739;53.324;6.862;2023-08-20T14:36:05;32.20;71.70
52867;DHT22;38739;53.324;6.862;2023-08-20T14:38:31;32.00;71.30
52867;DHT22;38739;53.324;6.862;2023-08-20T14:41:03;32.10;72.30
52867;DHT22;38739;53.324;6.862;2023-08-20T14:43:29;32.30;72.50
52867;DHT22;38739;53.324;6.862;2023-08-20T14:45:55;32.70;72.20
52867;DHT22;38739;53.324;6.862;2023-08-20T14:48:22;33.10;71.30
52867;DHT22;38739;53.324;6.862;2023-08-20T14:50:48;32.80;70.30
52867;DHT22;38739;53.324;6.862;2023-08-20T14:53:14;32.30;70.80
52867;DHT22;38739;53.324;6.862;2023-08-20T14:55:40;32.20;71.50
52867;DHT22;38739;53.324;6.862;2023-08-20T14:58:05;32.20;72.70
52867;DHT22;38739;53.324;6.862;2023-08-20T15:00:32;32.20;73.00
52867;DHT22;38739;53.324;6.862;2023-08-20T15:02:58;32.10;72.90
52867;DHT22;38739;53.324;6.862;2023-08-20T15:05:23;32.20;73.20
52867;DHT22;38739;53.324;6.862;2023-08-20T15:07:49;32.40;72.80
52867;DHT22;38739;53.324;6.862;2023-08-20T15:10:15;32.60;71.90
52867;DHT22;38739;53.324;6.862;2023-08-20T15:12:41;32.70;71.40
52867;DHT22;38739;53.324;6.862;2023-08-20T15:15:07;32.70;71.90
52867;DHT22;38739;53.324;6.862;2023-08-20T15:17:36;32.70;72.30
52867;DHT22;38739;53.324;6.862;2023-08-20T15:20:03;32.40;72.00
52867;DHT22;38739;53.324;6.862;2023-08-20T15:22:31;32.10;72.60
52867;DHT22;38739;53.324;6.862;2023-08-20T15:24:57;32.00;73.10
52867;DHT22;38739;53.324;6.862;2023-08-20T15:27:24;31.80;74.10
52867;DHT22;38739;53.324;6.862;2023-08-20T15:29:50;31.60;73.90
52867;DHT22;38739;53.324;6.862;2023-08-20T15:32:16;31.60;74.40
52867;DHT22;38739;53.324;6.862;2023-08-20T15:34:42;31.60;74.10
52867;DHT22;38739;53.324;6.862;2023-08-20T15:37:07;31.60;73.70
52867;DHT22;38739;53.324;6.862;2023-08-20T15:39:33;31.60;74.30
52867;DHT22;38739;53.324;6.862;2023-08-20T15:42:03;31.60;74.90
52867;DHT22;38739;53.324;6.862;2023-08-20T15:44:28;31.70;74.90
52867;DHT22;38739;53.324;6.862;2023-08-20T15:46:54;31.80;75.00
52867;DHT22;38739;53.324;6.862;2023-08-20T15:49:20;31.60;74.80
52867;DHT22;38739;53.324;6.862;2023-08-20T15:51:45;31.20;74.60
52867;DHT22;38739;53.324;6.862;2023-08-20T15:54:12;30.70;75.90